Time;durP1;ratioP1;P1;durP2;ratioP2;P2;SDS_P1;SDS_P2;PMS_P1;PMS_P2;Temp;Humidity;BMP_temperature;BMP_pressure;BME280_temperature;BME280_humidity;BME280_pressure;Samples;Min_cycle;Max_cycle;Signal;HPM_P1;HPM_P2
2021/05/25 00:00:34;;;;;;;8.95;8.25;;;9.40;78.40;;;;;;5190728;28;20514;-75
2021/05/25 00:03:08;;;;;;;8.88;8.07;;;9.40;80.00;;;;;;5190167;28;20071;-74
2021/05/25 00:05:41;;;;;;;9.40;8.60;;;9.40;79.00;;;;;;5187861;28;20045;-74
2021/05/25 00:08:13;;;;;;;8.98;8.27;;;9.40;78.90;;;;;;5191004;28;20447;-74
2021/05/25 00:10:45;;;;;;;8.95;8.25;;;9.40;79.00;;;;;;5188696;28;20046;-76
2021/05/25 00:13:17;;;;;;;9.30;8.45;;;9.30;79.40;;;;;;5187784;28;20041;-74
2021/05/25 00:15:52;;;;;;;8.93;8.13;;;9.30;79.90;;;;;;5191606;28;20046;-74
2021/05/25 00:18:25;;;;;;;9.27;8.50;;;9.30;79.60;;;;;;5188964;28;20342;-75
2021/05/25 00:20:57;;;;;;;9.20;8.50;;;9.30;79.50;;;;;;5189414;28;20038;-74
2021/05/25 00:23:29;;;;;;;9.38;8.68;;;9.30;80.10;;;;;;5190825;28;20132;-73
2021/05/25 00:26:01;;;;;;;9.10;8.40;;;9.20;80.30;;;;;;5191211;28;20071;-76
2021/05/25 00:28:33;;;;;;;8.77;8.07;;;9.10;80.10;;;;;;5187536;28;20041;-76
2021/05/25 00:31:05;;;;;;;8.82;8.10;;;9.10;79.90;;;;;;5187071;28;20064;-74
2021/05/25 00:33:37;;;;;;;9.18;8.48;;;9.20;80.20;;;;;;5190582;28;20095;-75
2021/05/25 00:36:11;;;;;;;9.57;8.88;;;9.20;80.00;;;;;;5190881;28;20085;-74
2021/05/25 00:38:43;;;;;;;9.30;8.60;;;9.20;80.00;;;;;;5177083;28;20042;-74
2021/05/25 00:41:15;;;;;;;9.27;8.57;;;9.20;79.90;;;;;;5190409;28;20046;-75
2021/05/25 00:43:48;;;;;;;9.48;8.73;;;9.20;79.90;;;;;;5190600;28;20401;-74
2021/05/25 00:46:19;;;;;;;9.18;8.45;;;9.20;79.50;;;;;;5171916;28;20132;-74
2021/05/25 00:48:51;;;;;;;9.07;8.38;;;9.10;79.30;;;;;;5174860;28;20505;-74
2021/05/25 00:51:23;;;;;;;9.65;8.85;;;9.10;80.10;;;;;;5176142;28;20115;-75
2021/05/25 00:53:55;;;;;;;9.35;8.63;;;9.00;79.90;;;;;;5176558;28;20451;-73
2021/05/25 00:56:27;;;;;;;9.13;8.32;;;9.00;79.90;;;;;;5188965;28;20045;-73
2021/05/25 00:59:00;;;;;;;9.68;8.88;;;8.90;79.90;;;;;;5188548;28;20053;-74
2021/05/25 01:01:32;;;;;;;10.82;9.82;;;8.80;80.00;;;;;;5189640;28;20524;-74
2021/05/25 01:04:04;;;;;;;10.75;9.75;;;8.80;80.60;;;;;;5173420;28;20042;-75
2021/05/25 01:06:36;;;;;;;10.02;9.10;;;8.60;80.50;;;;;;5189610;28;20045;-74
2021/05/25 01:09:08;;;;;;;10.32;9.35;;;8.70;80.80;;;;;;5190010;28;20045;-75
2021/05/25 01:11:41;;;;;;;9.68;8.88;;;8.60;80.60;;;;;;5189460;28;20034;-76
2021/05/25 01:14:14;;;;;;;9.60;8.80;;;8.60;80.80;;;;;;5194091;28;20575;-76
2021/05/25 01:16:46;;;;;;;9.82;9.05;;;8.60;80.50;;;;;;5189692;28;20042;-75
2021/05/25 01:19:18;;;;;;;9.60;8.77;;;8.70;80.40;;;;;;5189258;28;20128;-75
2021/05/25 01:21:50;;;;;;;9.60;8.80;;;8.70;80.20;;;;;;5188154;28;20124;-75
2021/05/25 01:24:30;;;;;;;9.30;8.60;;;8.60;80.10;;;;;;5189347;28;20460;-74
2021/05/25 01:27:05;;;;;;;9.38;8.57;;;8.60;80.30;;;;;;5205032;28;20369;-76
2021/05/25 01:29:38;;;;;;;9.68;8.88;;;8.60;80.40;;;;;;5189011;28;20044;-75
2021/05/25 01:32:10;;;;;;;9.55;8.75;;;8.60;80.50;;;;;;5177687;28;20404;-74
2021/05/25 01:34:42;;;;;;;9.52;8.73;;;8.50;80.70;;;;;;5189768;28;20041;-75
2021/05/25 01:37:14;;;;;;;10.00;9.20;;;8.50;80.60;;;;;;5190471;28;20103;-75
2021/05/25 01:39:52;;;;;;;9.25;8.55;;;8.50;81.40;;;;;;5189283;28;20045;-75
2021/05/25 01:42:32;;;;;;;10.15;9.25;;;8.50;81.90;;;;;;5188721;28;20053;-74
2021/05/25 01:45:07;;;;;;;9.52;8.73;;;8.30;82.90;;;;;;5187524;28;20060;-74
2021/05/25 01:47:40;;;;;;;9.65;8.75;;;8.10;83.30;;;;;;5188184;28;20045;-73
2021/05/25 01:50:15;;;;;;;9.52;8.73;;;8.00;83.30;;;;;;5177402;28;20033;-73
2021/05/25 01:52:48;;;;;;;9.63;8.90;;;8.00;83.60;;;;;;5189559;28;20418;-74
2021/05/25 01:55:46;;;;;;;9.38;8.68;;;8.00;83.30;;;;;;5192412;28;20832;-74
2021/05/25 01:58:33;;;;;;;9.40;8.70;;;8.10;83.20;;;;;;5183651;28;20049;-74
2021/05/25 02:01:11;;;;;;;8.50;7.90;;;8.00;82.00;;;;;;5188599;28;20058;-75
2021/05/25 02:03:43;;;;;;;8.88;8.18;;;8.00;82.10;;;;;;5189123;28;20455;-76
2021/05/25 02:06:15;;;;;;;8.82;8.13;;;7.90;80.80;;;;;;5188146;28;20104;-76
2021/05/25 02:08:47;;;;;;;9.00;8.30;;;7.80;81.40;;;;;;5191608;28;20381;-75
2021/05/25 02:11:19;;;;;;;9.48;8.68;;;7.80;80.90;;;;;;5188168;28;20053;-75
2021/05/25 02:13:50;;;;;;;9.02;8.32;;;7.90;80.60;;;;;;5187329;28;20108;-75
2021/05/25 02:16:22;;;;;;;8.95;8.25;;;7.90;80.90;;;;;;5185162;28;20054;-75
2021/05/25 02:18:54;;;;;;;9.00;8.30;;;7.90;80.30;;;;;;5187591;28;20069;-74
2021/05/25 02:21:26;;;;;;;8.63;7.85;;;7.90;80.80;;;;;;5187956;28;20550;-74
2021/05/25 02:23:58;;;;;;;8.77;7.97;;;7.90;80.70;;;;;;5189455;28;20068;-75
2021/05/25 02:26:30;;;;;;;8.75;8.05;;;7.90;80.40;;;;;;5189638;28;20037;-74
2021/05/25 02:29:02;;;;;;;8.63;7.93;;;7.90;80.00;;;;;;5173063;28;20721;-76
2021/05/25 02:31:34;;;;;;;8.80;8.10;;;7.70;80.20;;;;;;5185783;28;20042;-75
2021/05/25 02:34:06;;;;;;;8.95;8.25;;;7.60;81.10;;;;;;5172268;28;20514;-75
2021/05/25 02:36:39;;;;;;;9.07;8.27;;;7.70;81.40;;;;;;5178382;28;20045;-74
2021/05/25 02:39:11;;;;;;;9.23;8.43;;;7.70;80.60;;;;;;5186381;28;20045;-74
2021/05/25 02:41:43;;;;;;;8.98;8.27;;;7.60;79.80;;;;;;5183645;28;20042;-76
2021/05/25 02:44:14;;;;;;;8.90;8.20;;;7.70;80.50;;;;;;5186053;28;20042;-75
2021/05/25 02:46:46;;;;;;;9.20;8.40;;;7.70;80.80;;;;;;5189525;28;20135;-76
2021/05/25 02:49:18;;;;;;;9.18;8.38;;;7.70;80.80;;;;;;5173828;28;20072;-75
2021/05/25 02:51:50;;;;;;;9.00;8.30;;;7.70;79.50;;;;;;5171660;28;20038;-74
2021/05/25 02:54:22;;;;;;;9.10;8.40;;;7.70;80.30;;;;;;5192013;28;20701;-75
2021/05/25 02:56:54;;;;;;;9.43;8.48;;;7.70;80.30;;;;;;5192513;28;20096;-75
2021/05/25 02:59:26;;;;;;;9.50;8.60;;;7.60;78.40;;;;;;5192390;28;20053;-75
2021/05/25 03:01:58;;;;;;;9.05;8.30;;;7.70;79.10;;;;;;5177572;28;20092;-75
2021/05/25 03:04:30;;;;;;;10.07;8.80;;;7.70;79.40;;;;;;5192220;28;20041;-77
2021/05/25 03:07:02;;;;;;;8.63;7.93;;;7.70;80.30;;;;;;5193548;28;20054;-76
2021/05/25 03:09:34;;;;;;;9.38;8.57;;;7.70;80.50;;;;;;5191004;28;20069;-78
2021/05/25 03:12:07;;;;;;;9.82;8.98;;;7.70;80.00;;;;;;5180345;28;20100;-76
2021/05/25 03:14:39;;;;;;;8.95;8.25;;;7.70;80.50;;;;;;5175902;28;20100;-75
2021/05/25 03:17:10;;;;;;;8.93;8.20;;;7.70;80.40;;;;;;5189209;28;20049;-76
2021/05/25 03:19:42;;;;;;;9.07;8.18;;;7.70;79.80;;;;;;5193900;28;20574;-76
2021/05/25 03:22:15;;;;;;;9.20;8.40;;;7.70;79.30;;;;;;5189353;28;20475;-76
2021/05/25 03:24:47;;;;;;;9.25;8.48;;;7.70;79.70;;;;;;5192186;28;20033;-77
2021/05/25 03:27:19;;;;;;;9.30;8.50;;;7.70;79.90;;;;;;5177051;28;20104;-78
2021/05/25 03:29:51;;;;;;;9.38;8.48;;;7.70;79.40;;;;;;5191301;28;20431;-76
2021/05/25 03:32:23;;;;;;;9.15;8.35;;;7.70;79.50;;;;;;5192508;28;20041;-76
2021/05/25 03:34:55;;;;;;;9.40;8.60;;;7.70;79.90;;;;;;5180815;28;20095;-76
2021/05/25 03:37:27;;;;;;;9.82;8.30;;;7.60;79.80;;;;;;5190926;28;20389;-75
2021/05/25 03:39:59;;;;;;;9.23;8.32;;;7.60;79.40;;;;;;5192958;28;20459;-76
2021/05/25 03:42:31;;;;;;;9.02;8.13;;;7.60;77.00;;;;;;5174754;28;20049;-76
2021/05/25 03:45:06;;;;;;;8.90;8.10;;;7.50;79.30;;;;;;5193449;28;20052;-76
2021/05/25 03:47:38;;;;;;;8.85;8.15;;;7.60;79.40;;;;;;5193892;28;20057;-76
2021/05/25 03:50:12;;;;;;;10.00;9.00;;;7.60;79.60;;;;;;5192016;28;20414;-76
2021/05/25 03:52:47;;;;;;;8.90;8.10;;;7.60;79.70;;;;;;5173172;28;20567;-76
2021/05/25 04:01:07;;;;;;;9.38;7.90;;;7.60;80.00;;;;;;5195551;28;20091;-76
2021/05/25 04:03:39;;;;;;;9.07;8.20;;;7.60;80.20;;;;;;5192993;28;20070;-76
2021/05/25 04:06:11;;;;;;;8.70;7.90;;;7.60;79.70;;;;;;5192819;28;20405;-76
2021/05/25 04:08:44;;;;;;;9.63;8.00;;;7.50;80.50;;;;;;5193347;28;20045;-75
2021/05/25 04:11:17;;;;;;;8.50;7.70;;;7.50;78.80;;;;;;5191816;28;20046;-75
2021/05/25 04:13:49;;;;;;;8.30;7.60;;;7.60;79.60;;;;;;5193404;28;20049;-76
2021/05/25 04:16:21;;;;;;;8.68;7.70;;;7.50;77.20;;;;;;5193479;28;20045;-75
2021/05/25 04:18:53;;;;;;;9.05;7.82;;;7.50;74.60;;;;;;5191783;28;20077;-76
2021/05/25 04:21:25;;;;;;;9.18;8.00;;;7.50;74.10;;;;;;5190633;28;20042;-74
2021/05/25 04:23:57;;;;;;;8.45;7.55;;;7.50;75.60;;;;;;5194057;28;20091;-75
2021/05/25 04:26:29;;;;;;;8.32;7.50;;;7.50;74.60;;;;;;5188536;28;20095;-75
2021/05/25 04:29:01;;;;;;;8.40;7.55;;;7.50;76.00;;;;;;5189495;28;20049;-75
2021/05/25 04:31:33;;;;;;;9.80;7.70;;;7.60;71.50;;;;;;5188524;28;20045;-75
2021/05/25 04:34:05;;;;;;;8.75;7.10;;;7.50;76.50;;;;;;5194497;28;20045;-75
2021/05/25 04:36:36;;;;;;;8.13;7.32;;;7.60;76.80;;;;;;5188660;28;20041;-75
2021/05/25 04:39:08;;;;;;;8.85;7.45;;;7.60;78.70;;;;;;5175470;28;20558;-76
2021/05/25 04:41:40;;;;;;;8.07;7.30;;;7.60;78.30;;;;;;5175631;28;20073;-74
2021/05/25 04:44:12;;;;;;;8.30;7.50;;;7.60;78.60;;;;;;5192442;28;20045;-75
2021/05/25 04:46:44;;;;;;;7.78;7.05;;;7.60;80.30;;;;;;5186529;28;20049;-76
2021/05/25 04:49:16;;;;;;;8.30;7.45;;;7.50;74.90;;;;;;5185903;28;20076;-77
2021/05/25 04:51:48;;;;;;;8.57;7.40;;;7.50;75.80;;;;;;5191642;28;20041;-75
2021/05/25 04:54:21;;;;;;;8.07;7.07;;;7.60;77.00;;;;;;5179982;28;20393;-76
2021/05/25 04:56:54;;;;;;;8.68;7.88;;;7.60;77.80;;;;;;5189086;28;20045;-76
2021/05/25 04:59:26;;;;;;;10.50;7.50;;;7.60;76.40;;;;;;5189516;28;20950;-76
2021/05/25 05:01:58;;;;;;;8.38;7.15;;;7.40;79.10;;;;;;5180569;28;20133;-76
2021/05/25 05:04:29;;;;;;;8.85;7.43;;;7.40;77.90;;;;;;5188765;28;21172;-76
2021/05/25 05:07:02;;;;;;;7.88;7.07;;;7.40;74.30;;;;;;5191094;28;20045;-74
2021/05/25 05:09:34;;;;;;;8.45;7.20;;;7.40;72.40;;;;;;5170718;28;20042;-74
2021/05/25 05:12:06;;;;;;;7.53;6.82;;;7.40;75.60;;;;;;5189675;28;20053;-74
2021/05/25 05:14:43;;;;;;;8.18;6.93;;;7.40;74.80;;;;;;5173227;28;20705;-73
2021/05/25 05:17:15;;;;;;;7.78;7.07;;;7.40;76.90;;;;;;5190436;28;20467;-75
2021/05/25 05:19:47;;;;;;;7.32;6.63;;;7.30;72.90;;;;;;5185906;28;20088;-75
2021/05/25 05:22:19;;;;;;;8.20;7.07;;;7.40;73.80;;;;;;5178661;28;20053;-74
2021/05/25 05:24:51;;;;;;;8.43;7.10;;;7.40;74.40;;;;;;5188519;28;20096;-74
2021/05/25 05:27:23;;;;;;;10.75;6.90;;;7.40;73.30;;;;;;5188377;28;20096;-76
2021/05/25 05:29:55;;;;;;;8.32;7.10;;;7.40;73.00;;;;;;5187470;28;20048;-74
2021/05/25 05:32:27;;;;;;;7.43;6.70;;;7.50;72.80;;;;;;5202740;28;20136;-74
2021/05/25 05:34:59;;;;;;;7.80;6.97;;;7.50;68.90;;;;;;5189351;28;20049;-74
2021/05/25 05:37:32;;;;;;;7.70;6.78;;;7.60;66.40;;;;;;5173608;28;20145;-74
2021/05/25 05:40:08;;;;;;;10.13;6.70;;;7.60;72.10;;;;;;5157037;28;20559;-75
2021/05/25 05:43:00;;;;;;;8.48;5.95;;;7.70;72.40;;;;;;5205670;28;20051;-75
2021/05/25 05:45:32;;;;;;;7.30;6.60;;;7.70;73.50;;;;;;5178276;28;20512;-75
2021/05/25 05:48:05;;;;;;;8.70;6.57;;;7.70;70.40;;;;;;5171845;28;20056;-75
2021/05/25 05:50:37;;;;;;;9.25;6.97;;;7.70;71.80;;;;;;5171174;28;20048;-76
2021/05/25 05:53:09;;;;;;;7.75;6.32;;;7.70;73.10;;;;;;5185138;28;20118;-76
2021/05/25 05:55:41;;;;;;;7.50;6.70;;;7.80;72.50;;;;;;5188347;28;20050;-76
2021/05/25 05:58:13;;;;;;;6.70;6.10;;;7.80;73.30;;;;;;5189906;28;20420;-76
2021/05/25 06:00:46;;;;;;;7.53;6.82;;;7.80;71.50;;;;;;5184906;28;20073;-75
2021/05/25 06:03:18;;;;;;;7.60;6.80;;;7.80;73.70;;;;;;5185265;28;20073;-78
2021/05/25 06:05:50;;;;;;;7.78;6.55;;;7.70;70.40;;;;;;5169722;28;20179;-77
2021/05/25 06:08:22;;;;;;;8.52;6.82;;;7.80;73.90;;;;;;5175425;28;20801;-76
2021/05/25 06:10:54;;;;;;;7.40;6.70;;;7.90;72.60;;;;;;5167149;28;20102;-76
2021/05/25 06:13:26;;;;;;;9.80;7.45;;;7.90;72.00;;;;;;5185561;28;20049;-76
2021/05/25 06:16:01;;;;;;;8.50;7.00;;;7.90;72.20;;;;;;5190926;28;20057;-76
2021/05/25 06:18:35;;;;;;;7.60;6.85;;;7.80;71.30;;;;;;5173327;28;20104;-75
2021/05/25 06:21:07;;;;;;;7.15;6.10;;;7.80;69.00;;;;;;5186526;28;20122;-74
2021/05/25 06:23:39;;;;;;;8.43;6.38;;;7.80;67.90;;;;;;5172994;28;20052;-74
2021/05/25 06:26:10;;;;;;;9.45;7.03;;;7.70;70.40;;;;;;5188606;28;20052;-74
2021/05/25 06:28:42;;;;;;;8.32;6.40;;;7.70;65.10;;;;;;5190547;28;20037;-76
2021/05/25 06:31:15;;;;;;;7.35;6.65;;;7.70;69.10;;;;;;5189504;28;20077;-74
2021/05/25 06:33:46;;;;;;;8.93;6.55;;;7.70;68.70;;;;;;5191130;28;20065;-75
2021/05/25 06:36:20;;;;;;;7.53;6.40;;;7.70;67.70;;;;;;5193381;28;20148;-75
2021/05/25 06:38:52;;;;;;;6.93;6.03;;;7.70;68.00;;;;;;5193419;28;20132;-75
2021/05/25 06:41:24;;;;;;;8.20;6.30;;;7.70;69.20;;;;;;5191110;28;20061;-76
2021/05/25 06:43:56;;;;;;;8.80;5.93;;;7.60;68.00;;;;;;5194555;28;20539;-75
2021/05/25 06:46:28;;;;;;;8.35;6.97;;;7.70;70.90;;;;;;5176055;28;20065;-75
2021/05/25 06:49:00;;;;;;;8.88;6.55;;;7.80;65.70;;;;;;5182771;28;20046;-75
2021/05/25 06:51:32;;;;;;;6.97;6.10;;;7.80;68.00;;;;;;5192524;28;20143;-75
2021/05/25 06:54:06;;;;;;;9.30;7.18;;;7.80;68.20;;;;;;5190500;28;20116;-75
2021/05/25 06:56:38;;;;;;;7.35;6.65;;;7.80;68.80;;;;;;5190671;28;20061;-76
2021/05/25 06:59:10;;;;;;;7.47;6.55;;;7.80;68.10;;;;;;5192947;28;20045;-75
2021/05/25 07:01:42;;;;;;;7.88;6.30;;;7.80;68.20;;;;;;5192607;28;20486;-76
2021/05/25 07:04:14;;;;;;;9.70;6.50;;;7.90;68.50;;;;;;5191527;28;20671;-74
2021/05/25 07:06:46;;;;;;;7.25;6.40;;;8.00;68.40;;;;;;5163531;28;20524;-75
2021/05/25 07:09:18;;;;;;;8.35;6.82;;;8.20;66.00;;;;;;5207994;28;20515;-75
2021/05/25 07:11:51;;;;;;;10.82;8.52;;;8.50;66.00;;;;;;5171504;28;20049;-75
2021/05/25 07:14:23;;;;;;;9.35;8.45;;;8.90;67.10;;;;;;5181557;28;20439;-75
2021/05/25 07:16:55;;;;;;;9.65;8.60;;;9.30;66.40;;;;;;5189977;28;20058;-76
2021/05/25 07:19:27;;;;;;;10.50;8.57;;;9.60;62.60;;;;;;5190185;28;20038;-75
2021/05/25 07:22:00;;;;;;;10.20;9.10;;;9.90;62.10;;;;;;5190107;28;20563;-75
2021/05/25 07:24:32;;;;;;;9.48;8.57;;;10.10;62.90;;;;;;5188687;28;20057;-76
2021/05/25 07:27:05;;;;;;;9.80;8.98;;;10.30;63.30;;;;;;5188566;28;20107;-76
2021/05/25 07:29:37;;;;;;;9.93;9.02;;;10.60;62.10;;;;;;5189129;28;20045;-73
2021/05/25 07:32:09;;;;;;;9.73;8.82;;;10.80;58.60;;;;;;5145958;28;20053;-74
2021/05/25 07:34:41;;;;;;;9.90;8.82;;;10.70;59.00;;;;;;5189134;28;20066;-75
2021/05/25 07:37:12;;;;;;;9.60;8.77;;;10.70;59.10;;;;;;5188082;28;20050;-74
2021/05/25 07:39:46;;;;;;;9.98;8.73;;;10.80;59.60;;;;;;5175731;28;20033;-75
2021/05/25 07:42:18;;;;;;;10.93;9.00;;;11.00;59.10;;;;;;5177525;28;20042;-76
2021/05/25 07:44:50;;;;;;;9.48;8.57;;;11.20;57.00;;;;;;5175625;28;20500;-75
2021/05/25 07:47:22;;;;;;;10.02;9.05;;;11.10;57.00;;;;;;5188177;28;20702;-76
2021/05/25 07:49:54;;;;;;;10.25;8.63;;;11.20;59.70;;;;;;5179429;28;20052;-74
2021/05/25 07:52:26;;;;;;;10.05;9.00;;;11.30;57.20;;;;;;5188499;28;20103;-74
2021/05/25 07:54:59;;;;;;;9.93;9.02;;;11.60;57.00;;;;;;5191095;28;20102;-74
2021/05/25 07:57:31;;;;;;;9.90;8.90;;;11.90;57.10;;;;;;5188970;28;20055;-76
2021/05/25 08:00:06;;;;;;;10.60;9.50;;;11.70;50.90;;;;;;5192266;28;20449;-74
2021/05/25 08:02:43;;;;;;;10.00;9.10;;;11.60;53.70;;;;;;5206161;28;20637;-74
2021/05/25 08:05:17;;;;;;;10.32;9.27;;;11.90;53.80;;;;;;5175285;28;20115;-74
2021/05/25 08:07:49;;;;;;;10.18;8.88;;;12.20;55.30;;;;;;5176446;28;20073;-73
2021/05/25 08:10:21;;;;;;;10.23;9.05;;;12.10;51.80;;;;;;5187388;28;20030;-72
2021/05/25 08:12:53;;;;;;;10.25;9.20;;;12.00;52.20;;;;;;5170796;28;20095;-71
2021/05/25 08:15:26;;;;;;;11.05;9.90;;;12.10;52.10;;;;;;5189118;28;20116;-71
2021/05/25 08:20:35;;;;;;;10.48;9.48;;;12.50;58.20;;;;;;5172070;28;20096;-72
2021/05/25 08:23:27;;;;;;;10.68;9.57;;;12.70;56.60;;;;;;5185841;28;20492;-72
2021/05/25 08:26:03;;;;;;;10.85;9.75;;;12.90;56.10;;;;;;5183496;28;20073;-74
2021/05/25 08:28:43;;;;;;;12.35;9.43;;;12.90;52.90;;;;;;5165432;28;20045;-72
2021/05/25 08:31:14;;;;;;;10.68;9.55;;;13.00;53.50;;;;;;5190140;28;20050;-71
2021/05/25 08:33:47;;;;;;;10.50;9.43;;;12.90;50.90;;;;;;5185631;28;20045;-72
2021/05/25 08:36:20;;;;;;;10.10;9.30;;;12.90;52.00;;;;;;5186358;28;20068;-72
2021/05/25 08:38:52;;;;;;;10.48;9.57;;;12.90;55.70;;;;;;5170908;28;20072;-72
2021/05/25 08:41:24;;;;;;;11.57;9.57;;;13.00;53.30;;;;;;5186445;28;20132;-72
2021/05/25 08:43:56;;;;;;;9.90;9.00;;;12.90;47.40;;;;;;5187559;28;20099;-71
2021/05/25 08:46:27;;;;;;;10.18;9.27;;;12.80;48.50;;;;;;5185059;28;20054;-72
2021/05/25 08:49:01;;;;;;;9.60;8.80;;;12.80;48.40;;;;;;5170727;28;20056;-72
2021/05/25 08:51:33;;;;;;;10.50;9.40;;;12.80;48.10;;;;;;5184992;28;20049;-72
2021/05/25 08:54:08;;;;;;;10.23;9.32;;;12.80;50.20;;;;;;5191179;28;20565;-72
2021/05/25 08:56:40;;;;;;;10.35;9.35;;;12.80;48.00;;;;;;5186992;28;20061;-72
2021/05/25 08:59:12;;;;;;;10.60;9.40;;;12.90;48.40;;;;;;5187540;28;20050;-72
2021/05/25 09:01:44;;;;;;;9.75;8.95;;;13.10;50.00;;;;;;5201369;28;20758;-72
2021/05/25 09:04:17;;;;;;;10.43;9.43;;;13.10;47.70;;;;;;5187582;28;20103;-72
2021/05/25 09:06:50;;;;;;;9.88;9.02;;;13.00;48.80;;;;;;5185996;28;20464;-72
2021/05/25 09:09:22;;;;;;;9.95;8.98;;;13.00;51.60;;;;;;5187275;28;20061;-72
2021/05/25 09:12:07;;;;;;;10.07;9.18;;;12.80;47.70;;;;;;5188028;28;20164;-72
2021/05/25 09:14:49;;;;;;;9.65;8.85;;;12.70;49.20;;;;;;5186860;28;20505;-72
2021/05/25 09:17:25;;;;;;;10.00;9.20;;;12.80;50.90;;;;;;5186272;28;20049;-72
2021/05/25 09:19:59;;;;;;;10.10;9.10;;;12.80;50.20;;;;;;5189829;28;20562;-72
2021/05/25 09:22:39;;;;;;;10.00;9.00;;;12.90;50.50;;;;;;5184949;28;20046;-73
2021/05/25 09:25:20;;;;;;;9.43;8.57;;;12.70;53.40;;;;;;5187061;28;20049;-72
2021/05/25 09:28:26;;;;;;;9.65;8.85;;;12.40;51.20;;;;;;5183257;28;20511;-72
2021/05/25 09:30:51;;;;;;;9.63;8.80;;;12.00;53.30;;;;;;5185337;28;20054;-72
2021/05/25 09:33:27;;;;;;;10.00;9.13;;;11.90;56.70;;;;;;5187210;28;20065;-73
2021/05/25 09:36:10;;;;;;;9.20;8.40;;;12.00;57.60;;;;;;5184833;28;20046;-73
2021/05/25 09:38:42;;;;;;;8.85;8.05;;;12.00;59.40;;;;;;5187341;28;20041;-73
2021/05/25 09:41:14;;;;;;;9.85;8.88;;;11.90;59.40;;;;;;5188498;28;20045;-72
2021/05/25 09:43:53;;;;;;;9.40;8.50;;;11.80;60.50;;;;;;5186824;28;20104;-74
2021/05/25 09:46:30;;;;;;;9.32;8.55;;;11.70;60.30;;;;;;5184804;28;20050;-73
2021/05/25 09:49:02;;;;;;;9.40;8.60;;;11.70;60.50;;;;;;5186288;28;20088;-74
2021/05/25 09:51:36;;;;;;;9.75;8.95;;;11.80;60.50;;;;;;5187673;28;20481;-72
2021/05/25 09:54:37;;;;;;;9.43;8.63;;;12.00;59.50;;;;;;5190906;28;20045;-72
2021/05/25 09:57:09;;;;;;;13.10;11.73;;;12.30;60.40;;;;;;5174113;28;20064;-72
2021/05/25 09:59:41;;;;;;;10.35;9.35;;;12.50;61.00;;;;;;5188655;28;20037;-72
2021/05/25 10:02:16;;;;;;;9.68;8.80;;;12.70;59.80;;;;;;5185720;28;20056;-72
2021/05/25 10:04:58;;;;;;;9.60;8.80;;;12.60;58.10;;;;;;5184169;28;20065;-73
2021/05/25 10:07:30;;;;;;;9.57;8.77;;;12.60;57.30;;;;;;5186002;28;20076;-74
2021/05/25 10:10:05;;;;;;;10.13;9.23;;;12.50;57.30;;;;;;5186312;28;20545;-72
2021/05/25 10:12:38;;;;;;;10.02;9.02;;;12.40;57.60;;;;;;5186512;28;20681;-72
2021/05/25 10:15:12;;;;;;;9.57;8.77;;;12.40;57.20;;;;;;5185568;28;20145;-72
2021/05/25 10:17:57;;;;;;;9.70;8.90;;;12.50;58.80;;;;;;5187495;28;20571;-72
2021/05/25 10:20:32;;;;;;;9.38;8.57;;;12.60;59.80;;;;;;5193638;28;20038;-72
2021/05/25 10:23:04;;;;;;;9.65;8.85;;;12.60;57.10;;;;;;5186258;28;20049;-72
2021/05/25 10:25:39;;;;;;;9.45;8.63;;;12.50;57.00;;;;;;5183781;28;20049;-71
2021/05/25 10:28:12;;;;;;;9.35;8.43;;;12.30;55.50;;;;;;5193282;28;20655;-72
2021/05/25 10:30:52;;;;;;;9.27;8.48;;;12.40;56.20;;;;;;5185549;28;20092;-71
2021/05/25 10:33:29;;;;;;;9.90;9.00;;;12.30;53.10;;;;;;5185845;28;20116;-73
2021/05/25 10:36:10;;;;;;;9.93;8.93;;;12.40;55.80;;;;;;5186517;28;20046;-72
2021/05/25 10:38:46;;;;;;;10.10;9.18;;;12.60;56.70;;;;;;5187293;28;20503;-72
2021/05/25 10:41:35;;;;;;;10.45;9.55;;;12.80;52.50;;;;;;5190029;28;20046;-71
2021/05/25 10:44:07;;;;;;;9.98;9.07;;;13.00;49.60;;;;;;5188148;28;20091;-71
2021/05/25 10:46:39;;;;;;;10.50;9.50;;;13.30;51.40;;;;;;5185838;28;20066;-71
2021/05/25 10:51:46;;;;;;;9.73;8.93;;;13.30;50.30;;;;;;5186389;28;20147;-70
2021/05/25 10:54:42;;;;;;;12.30;10.38;;;13.50;46.30;;;;;;5184396;28;20053;-72
2021/05/25 10:57:38;;;;;;;10.25;9.25;;;13.60;46.30;;;;;;5186673;28;20062;-71
2021/05/25 11:00:19;;;;;;;10.27;9.40;;;13.90;50.70;;;;;;5185225;28;20041;-71
2021/05/25 11:02:53;;;;;;;10.30;9.43;;;14.00;45.10;;;;;;5187520;28;20041;-72
2021/05/25 11:05:28;;;;;;;10.95;9.85;;;14.00;47.00;;;;;;5186205;28;20068;-74
2021/05/25 11:08:12;;;;;;;10.60;9.68;;;14.20;44.20;;;;;;5186642;28;20050;-74
2021/05/25 11:10:51;;;;;;;12.88;10.27;;;14.30;46.10;;;;;;5188159;28;21197;-72
2021/05/25 11:13:28;;;;;;;10.45;9.57;;;14.30;41.50;;;;;;5187072;28;20042;-73
2021/05/25 11:16:20;;;;;;;10.25;9.35;;;14.20;38.10;;;;;;5191335;28;20168;-73
2021/05/25 11:19:17;;;;;;;9.95;9.15;;;14.10;38.40;;;;;;5190469;28;20068;-74
2021/05/25 11:24:36;;;;;;;10.48;9.43;;;14.50;38.60;;;;;;5190463;28;20084;-74
2021/05/25 11:27:26;;;;;;;10.23;9.32;;;14.60;40.50;;;;;;5191320;28;20052;-76
2021/05/25 11:30:05;;;;;;;10.05;9.00;;;14.70;38.70;;;;;;5192987;28;20045;-73
2021/05/25 11:32:48;;;;;;;9.98;9.18;;;14.50;35.80;;;;;;5195869;28;20065;-75
2021/05/25 11:35:28;;;;;;;10.07;9.27;;;14.60;36.70;;;;;;5190357;28;20695;-74
2021/05/25 11:38:03;;;;;;;9.98;9.18;;;14.80;35.40;;;;;;5191697;28;20049;-76
2021/05/25 11:40:36;;;;;;;9.30;8.60;;;14.70;37.60;;;;;;5195232;28;20522;-75
2021/05/25 11:43:08;;;;;;;9.25;8.38;;;14.60;37.50;;;;;;5193650;28;20547;-76
2021/05/25 11:45:40;;;;;;;9.15;8.32;;;14.40;39.70;;;;;;5191241;28;20452;-76
2021/05/25 11:48:23;;;;;;;10.13;9.32;;;14.40;40.70;;;;;;5190034;28;20049;-75
2021/05/25 11:51:10;;;;;;;9.50;8.73;;;14.50;40.20;;;;;;5186773;28;20054;-72
2021/05/25 11:53:42;;;;;;;10.70;9.70;;;14.80;39.10;;;;;;5190094;28;20037;-72
2021/05/25 11:56:14;;;;;;;10.40;9.60;;;14.80;37.80;;;;;;5208062;28;20189;-74
2021/05/25 11:58:56;;;;;;;9.95;9.07;;;15.00;38.10;;;;;;5192406;28;20838;-75
2021/05/25 12:01:49;;;;;;;10.05;9.25;;;15.30;40.00;;;;;;5204573;28;20091;-75
2021/05/25 12:04:22;;;;;;;10.65;9.65;;;15.40;37.00;;;;;;5212394;28;20832;-75
2021/05/25 12:06:58;;;;;;;11.07;10.15;;;15.70;35.80;;;;;;5209399;28;20048;-76
2021/05/25 12:09:30;;;;;;;10.70;9.80;;;15.90;33.80;;;;;;5203190;28;20623;-74
2021/05/25 12:12:08;;;;;;;10.80;9.90;;;15.90;34.00;;;;;;5207217;28;20605;-75
2021/05/25 12:14:40;;;;;;;15.07;10.32;;;15.60;33.20;;;;;;5210824;28;20042;-75
2021/05/25 12:17:19;;;;;;;10.55;9.65;;;14.90;36.30;;;;;;5186731;28;20656;-76
2021/05/25 12:19:57;;;;;;;10.90;10.10;;;14.60;39.70;;;;;;5197600;28;20073;-75
2021/05/25 12:22:37;;;;;;;11.15;10.15;;;14.50;43.40;;;;;;5197477;28;20057;-74
2021/05/25 12:25:19;;;;;;;11.73;10.52;;;14.80;40.20;;;;;;5206098;28;20140;-75
2021/05/25 12:28:05;;;;;;;11.60;10.60;;;15.10;41.70;;;;;;5206580;28;20060;-75
2021/05/25 12:30:49;;;;;;;11.27;10.30;;;15.40;39.40;;;;;;5208710;28;20045;-74
2021/05/25 12:33:34;;;;;;;11.13;10.33;;;15.30;38.80;;;;;;5209065;28;21645;-73
2021/05/25 12:36:21;;;;;;;10.90;10.00;;;15.40;35.40;;;;;;5193937;28;20044;-75
2021/05/25 12:38:58;;;;;;;10.60;9.60;;;15.30;37.70;;;;;;5208986;28;20052;-73
2021/05/25 12:41:39;;;;;;;11.30;10.40;;;15.30;36.30;;;;;;5192604;28;20401;-73
2021/05/25 12:44:15;;;;;;;11.13;10.23;;;15.30;36.50;;;;;;5206972;28;20061;-74
2021/05/25 12:47:02;;;;;;;11.00;10.07;;;15.30;39.10;;;;;;5206584;28;20040;-75
2021/05/25 12:49:36;;;;;;;11.38;10.48;;;15.50;38.20;;;;;;5213820;28;20029;-73
2021/05/25 12:52:25;;;;;;;11.40;10.50;;;15.70;37.80;;;;;;5210710;28;20083;-75
2021/05/25 12:55:07;;;;;;;11.43;10.57;;;15.70;36.10;;;;;;5188910;28;20507;-74
2021/05/25 12:57:51;;;;;;;11.73;10.75;;;15.80;36.00;;;;;;5171614;28;20057;-74
2021/05/25 13:00:38;;;;;;;11.75;10.85;;;15.80;34.10;;;;;;5190240;28;20140;-73
2021/05/25 13:03:27;;;;;;;12.27;11.25;;;16.00;35.00;;;;;;5185672;28;20045;-74
2021/05/25 13:06:16;;;;;;;12.05;11.15;;;16.30;36.20;;;;;;5187284;28;20060;-73
2021/05/25 13:08:52;;;;;;;12.13;11.13;;;16.40;34.20;;;;;;5188121;28;20546;-73
2021/05/25 13:11:25;;;;;;;12.40;11.40;;;16.70;34.00;;;;;;5187097;28;20049;-74
2021/05/25 13:13:57;;;;;;;12.00;11.00;;;16.40;32.40;;;;;;5185979;28;20044;-73
2021/05/25 13:16:31;;;;;;;11.98;11.02;;;16.00;34.60;;;;;;5170684;28;20042;-73
2021/05/25 13:19:03;;;;;;;12.48;11.38;;;16.20;35.40;;;;;;5188495;28;20078;-73
2021/05/25 13:21:42;;;;;;;12.00;10.98;;;16.40;36.40;;;;;;5186861;28;20096;-73
2021/05/25 13:24:14;;;;;;;12.15;11.15;;;16.40;39.30;;;;;;5187932;28;20046;-73
2021/05/25 13:26:46;;;;;;;12.68;11.55;;;16.50;33.90;;;;;;5186280;28;20116;-73
2021/05/25 13:29:20;;;;;;;12.38;11.45;;;16.80;33.20;;;;;;5188051;28;20042;-73
2021/05/25 13:31:52;;;;;;;12.25;11.25;;;16.80;34.70;;;;;;5187626;28;20050;-74
2021/05/25 13:34:25;;;;;;;12.35;11.45;;;17.10;37.20;;;;;;5185233;28;20618;-73
2021/05/25 13:36:58;;;;;;;12.70;11.70;;;17.20;33.80;;;;;;5185821;28;20041;-73
2021/05/25 13:39:30;;;;;;;12.70;11.70;;;17.40;34.50;;;;;;5183376;28;20070;-73